Time;durP1;ratioP1;P1;durP2;ratioP2;P2;SDS_P1;SDS_P2;PMS_P1;PMS_P2;Temp;Humidity;BMP_temperature;BMP_pressure;BME280_temperature;BME280_humidity;BME280_pressure;Samples;Min_cycle;Max_cycle;Signal;HPM_P1;HPM_P2
2023/02/03 00:01:51;;;;;;;1.10;1.00;;;3.20;99.90;;;;;;4130345;28;20221;-66
2023/02/03 00:03:52;;;;;;;2.23;2.13;;;3.20;99.90;;;;;;4130185;28;20233;-65
2023/02/03 00:05:54;;;;;;;1.73;1.63;;;2.90;99.90;;;;;;4130035;28;20186;-64
2023/02/03 00:07:55;;;;;;;2.63;1.03;;;2.80;99.90;;;;;;4129470;28;20198;-66
2023/02/03 00:09:56;;;;;;;2.73;1.50;;;2.80;99.90;;;;;;4129385;28;20942;-65
2023/02/03 00:11:57;;;;;;;4.43;1.13;;;2.70;99.90;;;;;;4128663;28;20473;-65
2023/02/03 00:13:58;;;;;;;1.63;1.03;;;2.70;99.90;;;;;;4130043;28;20776;-66
2023/02/03 00:16:00;;;;;;;1.57;1.10;;;2.80;99.90;;;;;;4130407;28;20727;-66
2023/02/03 00:18:01;;;;;;;2.20;1.20;;;2.80;99.90;;;;;;4137820;28;20284;-65
2023/02/03 00:20:02;;;;;;;1.97;1.20;;;2.90;99.90;;;;;;4145832;28;20930;-65
2023/02/03 00:22:03;;;;;;;1.63;1.17;;;2.90;99.90;;;;;;4146456;28;20196;-65
2023/02/03 00:24:04;;;;;;;3.73;1.20;;;2.90;99.90;;;;;;4146441;28;20203;-65
2023/02/03 00:26:13;;;;;;;1.93;1.57;;;2.90;99.90;;;;;;4146275;28;20212;-67
2023/02/03 00:28:14;;;;;;;1.07;1.00;;;2.80;99.90;;;;;;4148360;28;20424;-65
2023/02/03 00:30:15;;;;;;;1.20;1.10;;;2.70;99.90;;;;;;4148985;28;20495;-64
2023/02/03 00:32:15;;;;;;;1.53;1.00;;;2.70;99.90;;;;;;4151454;28;20192;-65
2023/02/03 00:34:16;;;;;;;1.10;0.90;;;2.80;99.90;;;;;;4148643;28;20947;-65
2023/02/03 00:36:17;;;;;;;4.40;1.20;;;2.80;99.90;;;;;;4149242;28;20237;-64
2023/02/03 00:38:18;;;;;;;0.90;0.90;;;2.80;99.90;;;;;;4148884;28;20219;-64
2023/02/03 00:40:20;;;;;;;3.00;1.10;;;2.80;99.90;;;;;;4148644;28;20190;-63
2023/02/03 00:42:21;;;;;;;1.60;1.30;;;2.80;99.90;;;;;;4147883;28;20190;-65
2023/02/03 00:44:22;;;;;;;1.60;1.50;;;2.80;99.90;;;;;;4149008;28;20551;-65
2023/02/03 00:46:23;;;;;;;1.50;1.10;;;2.70;99.90;;;;;;4149079;28;20251;-66
2023/02/03 00:48:23;;;;;;;1.83;0.97;;;2.80;99.90;;;;;;4147992;28;20243;-66
2023/02/03 00:50:24;;;;;;;1.13;0.93;;;2.80;99.90;;;;;;4148825;28;20209;-65
2023/02/03 00:52:25;;;;;;;2.30;0.90;;;2.80;99.90;;;;;;4148825;28;20181;-66
2023/02/03 00:54:25;;;;;;;1.20;0.90;;;2.80;99.90;;;;;;4147586;28;20205;-64
2023/02/03 00:56:26;;;;;;;1.47;0.83;;;2.80;99.90;;;;;;4148561;28;20213;-64
2023/02/03 00:58:27;;;;;;;2.47;1.07;;;2.70;99.90;;;;;;4147594;28;20199;-65
2023/02/03 01:00:27;;;;;;;1.83;1.00;;;2.70;99.90;;;;;;4151614;28;20181;-65
2023/02/03 01:02:28;;;;;;;1.30;0.90;;;2.70;99.90;;;;;;4148891;28;20182;-65
2023/02/03 01:04:29;;;;;;;1.10;1.00;;;2.70;99.90;;;;;;4149152;28;20185;-64
2023/02/03 01:06:29;;;;;;;1.30;1.00;;;2.60;99.90;;;;;;4147864;28;20218;-65
2023/02/03 01:08:31;;;;;;;2.13;1.00;;;2.70;99.90;;;;;;4148093;28;20196;-65
2023/02/03 01:10:31;;;;;;;0.80;0.80;;;2.60;99.90;;;;;;4148825;28;20215;-64
2023/02/03 01:12:32;;;;;;;1.57;1.43;;;2.50;99.90;;;;;;4147959;28;20537;-65
2023/02/03 01:14:33;;;;;;;0.97;0.93;;;2.50;99.90;;;;;;4148737;28;20177;-65
2023/02/03 01:16:36;;;;;;;1.27;0.93;;;2.40;99.90;;;;;;4148778;28;20217;-65
2023/02/03 01:18:38;;;;;;;1.20;1.10;;;2.40;99.90;;;;;;4147736;28;20451;-66
2023/02/03 01:20:39;;;;;;;1.80;0.90;;;2.40;99.90;;;;;;4148724;28;20464;-64
2023/02/03 01:22:40;;;;;;;1.20;0.90;;;2.50;99.90;;;;;;4148734;28;20439;-65
2023/02/03 01:24:40;;;;;;;1.50;1.13;;;2.50;99.90;;;;;;4148499;28;20674;-65
2023/02/03 01:26:41;;;;;;;1.67;1.13;;;2.40;99.90;;;;;;4148583;28;20623;-64
2023/02/03 01:28:42;;;;;;;1.70;0.90;;;2.40;99.90;;;;;;4147772;28;20213;-66
2023/02/03 01:30:43;;;;;;;3.07;1.00;;;2.50;99.90;;;;;;4148290;28;20685;-65
2023/02/03 01:32:43;;;;;;;1.00;0.90;;;2.40;99.90;;;;;;4148114;28;20431;-65
2023/02/03 01:34:44;;;;;;;1.30;1.00;;;2.40;99.90;;;;;;4148254;28;20185;-65
2023/02/03 01:36:45;;;;;;;1.70;1.23;;;2.40;99.90;;;;;;4148228;28;20242;-64
2023/02/03 01:38:46;;;;;;;1.03;0.93;;;2.50;99.90;;;;;;4146899;28;20189;-66
2023/02/03 01:40:47;;;;;;;1.50;0.80;;;2.40;99.90;;;;;;4147713;28;20929;-65
2023/02/03 01:42:47;;;;;;;1.37;0.90;;;2.40;99.90;;;;;;4146847;28;20467;-64
2023/02/03 01:44:50;;;;;;;0.80;0.80;;;2.50;99.90;;;;;;4147834;28;20186;-65
2023/02/03 01:46:51;;;;;;;1.03;0.80;;;2.50;99.90;;;;;;4162988;28;20263;-65
2023/02/03 01:49:18;;;;;;;1.50;1.00;;;2.50;99.90;;;;;;4162482;28;20439;-65
2023/02/03 01:51:20;;;;;;;0.97;0.80;;;2.70;99.90;;;;;;4147909;28;20439;-65
2023/02/03 01:53:21;;;;;;;1.13;0.80;;;2.70;99.90;;;;;;4147034;28;20431;-65
2023/02/03 01:55:27;;;;;;;0.93;0.70;;;2.60;99.90;;;;;;4146699;28;21002;-66
2023/02/03 01:57:38;;;;;;;0.90;0.90;;;2.50;99.90;;;;;;4146358;28;20212;-65
2023/02/03 01:59:39;;;;;;;1.23;0.60;;;2.50;99.90;;;;;;4147331;28;20946;-64
2023/02/03 02:01:40;;;;;;;1.43;1.07;;;2.40;99.90;;;;;;4147789;28;20931;-64
2023/02/03 02:03:52;;;;;;;1.23;0.93;;;2.30;99.90;;;;;;4147683;28;20423;-64
2023/02/03 02:06:03;;;;;;;1.33;0.90;;;2.30;99.90;;;;;;4147694;28;20255;-65
2023/02/03 02:08:06;;;;;;;3.37;0.90;;;2.20;99.90;;;;;;4147880;28;20413;-64
2023/02/03 02:10:07;;;;;;;0.70;0.70;;;2.10;99.90;;;;;;4145980;28;20463;-65
2023/02/03 02:12:10;;;;;;;1.20;1.10;;;2.20;99.90;;;;;;4147358;28;20431;-64
2023/02/03 02:14:11;;;;;;;2.10;1.33;;;2.20;99.90;;;;;;4147882;28;20489;-66
2023/02/03 02:16:18;;;;;;;0.73;0.73;;;2.30;99.90;;;;;;4162999;28;20446;-64
2023/02/03 02:18:46;;;;;;;1.03;0.70;;;2.30;99.90;;;;;;4152553;28;20189;-66
2023/02/03 02:21:41;;;;;;;1.77;0.80;;;2.40;99.90;;;;;;4131691;28;20409;-65
2023/02/03 02:24:09;;;;;;;0.73;0.70;;;2.20;99.90;;;;;;4134609;28;20434;-65
2023/02/03 02:27:00;;;;;;;0.80;0.80;;;2.10;99.90;;;;;;4131106;28;20444;-64
2023/02/03 02:29:35;;;;;;;1.07;0.70;;;2.20;99.90;;;;;;4130595;28;20424;-65
2023/02/03 02:31:50;;;;;;;1.00;0.87;;;2.30;99.90;;;;;;4131040;28;20451;-64
2023/02/03 02:34:04;;;;;;;1.27;0.83;;;2.20;99.90;;;;;;4131031;28;20417;-64
2023/02/03 02:36:35;;;;;;;0.60;0.60;;;2.40;99.90;;;;;;4131113;28;20445;-65
2023/02/03 02:38:50;;;;;;;0.80;0.70;;;2.40;99.90;;;;;;4140532;28;20452;-64
2023/02/03 02:41:15;;;;;;;0.70;0.70;;;2.40;99.90;;;;;;4129937;28;20444;-66
2023/02/03 02:43:33;;;;;;;0.83;0.77;;;2.40;99.90;;;;;;4129682;28;20997;-65
2023/02/03 02:46:09;;;;;;;0.50;0.50;;;2.30;99.90;;;;;;4129668;28;20826;-64
2023/02/03 02:48:41;;;;;;;0.70;0.70;;;2.50;99.90;;;;;;4129687;28;20524;-65
2023/02/03 02:50:45;;;;;;;1.00;1.00;;;2.50;99.90;;;;;;4130564;28;20448;-64
2023/02/03 02:52:48;;;;;;;2.13;0.90;;;2.50;99.90;;;;;;4130103;28;21106;-64
2023/02/03 02:54:54;;;;;;;0.70;0.70;;;2.50;99.90;;;;;;4129468;28;20420;-64
2023/02/03 02:56:59;;;;;;;0.80;0.80;;;2.50;99.90;;;;;;4129418;28;20530;-65
2023/02/03 02:59:06;;;;;;;1.13;0.70;;;2.50;99.90;;;;;;4129609;28;20405;-66
2023/02/03 03:01:08;;;;;;;0.87;0.87;;;2.50;99.90;;;;;;4132385;28;20460;-66
2023/02/03 03:03:17;;;;;;;0.87;0.73;;;2.50;99.90;;;;;;4131382;28;20412;-65
2023/02/03 03:05:18;;;;;;;1.00;1.00;;;2.60;99.90;;;;;;4130667;28;20923;-66
2023/02/03 03:07:26;;;;;;;0.80;0.80;;;2.60;99.90;;;;;;4129349;28;20444;-66
2023/02/03 03:09:36;;;;;;;1.60;0.90;;;2.50;99.90;;;;;;4128707;28;20495;-65
2023/02/03 03:11:49;;;;;;;0.87;0.70;;;2.50;99.90;;;;;;4112958;28;20445;-66
2023/02/03 03:13:53;;;;;;;1.20;1.10;;;2.50;99.90;;;;;;4129332;28;20503;-66
2023/02/03 03:15:58;;;;;;;1.73;0.70;;;2.50;99.90;;;;;;4130832;28;20421;-65
2023/02/03 03:18:45;;;;;;;1.70;0.70;;;2.50;99.90;;;;;;4137589;28;20554;-66
2023/02/03 03:20:48;;;;;;;0.60;0.60;;;2.50;99.90;;;;;;4112399;28;20438;-65
2023/02/03 03:22:58;;;;;;;0.67;0.60;;;2.50;99.90;;;;;;4132372;28;20527;-66
2023/02/03 03:25:07;;;;;;;0.87;0.70;;;2.60;99.90;;;;;;4145432;28;20425;-65
2023/02/03 03:27:22;;;;;;;1.00;0.60;;;2.60;99.90;;;;;;4145701;28;20481;-65
2023/02/03 03:29:34;;;;;;;1.33;0.90;;;2.80;99.90;;;;;;4146240;28;20428;-64
2023/02/03 03:31:35;;;;;;;1.10;0.80;;;2.80;99.90;;;;;;4146631;28;20455;-64
2023/02/03 03:33:36;;;;;;;0.80;0.77;;;2.80;99.90;;;;;;4146526;28;20421;-65
2023/02/03 03:35:51;;;;;;;1.00;0.90;;;2.80;99.90;;;;;;4146544;28;20428;-65
2023/02/03 03:38:06;;;;;;;1.40;0.90;;;2.90;99.90;;;;;;4145382;28;20845;-64
2023/02/03 03:40:24;;;;;;;1.07;0.97;;;2.70;99.90;;;;;;4144451;28;20419;-65
2023/02/03 03:42:49;;;;;;;1.40;0.90;;;2.70;99.90;;;;;;4145415;28;20933;-65
2023/02/03 03:45:00;;;;;;;1.90;1.13;;;2.70;99.90;;;;;;4145252;28;20412;-64
2023/02/03 03:47:26;;;;;;;1.27;1.07;;;2.70;99.90;;;;;;4144908;28;20444;-65
2023/02/03 03:49:29;;;;;;;1.47;0.90;;;2.80;99.90;;;;;;4144392;28;20447;-65
2023/02/03 03:51:38;;;;;;;2.03;1.20;;;2.90;99.90;;;;;;4128666;28;20810;-64
2023/02/03 03:53:41;;;;;;;2.30;0.90;;;2.80;99.90;;;;;;4141507;28;20559;-65
2023/02/03 03:55:49;;;;;;;2.33;1.20;;;2.70;99.90;;;;;;4145252;28;20436;-64
2023/02/03 03:58:09;;;;;;;2.17;0.90;;;2.70;99.90;;;;;;4145426;28;20494;-65
2023/02/03 04:00:14;;;;;;;2.13;1.23;;;2.70;99.90;;;;;;4144614;28;20523;-64
2023/02/03 04:02:17;;;;;;;1.57;0.90;;;2.90;99.90;;;;;;4147013;28;20440;-66
2023/02/03 04:04:20;;;;;;;2.87;0.90;;;3.00;99.90;;;;;;4148213;28;20455;-65
2023/02/03 04:06:20;;;;;;;1.20;1.00;;;3.00;99.90;;;;;;4148176;28;20456;-64
2023/02/03 04:08:21;;;;;;;1.57;1.00;;;2.90;99.90;;;;;;4149145;28;20436;-65
2023/02/03 04:10:36;;;;;;;2.20;1.30;;;2.90;99.90;;;;;;4149698;28;20516;-65
2023/02/03 04:12:36;;;;;;;1.80;1.30;;;2.90;99.90;;;;;;4142438;28;20193;-64
2023/02/03 04:14:37;;;;;;;2.10;1.20;;;2.80;99.90;;;;;;4149232;28;20471;-64
2023/02/03 04:16:38;;;;;;;1.83;1.30;;;2.80;99.90;;;;;;4149468;28;20706;-65
2023/02/03 04:18:38;;;;;;;1.23;1.00;;;2.70;99.90;;;;;;4148592;28;20189;-65
2023/02/03 04:20:39;;;;;;;1.93;1.20;;;2.60;99.90;;;;;;4147778;28;20186;-65
2023/02/03 04:22:40;;;;;;;2.93;0.80;;;2.60;99.90;;;;;;4164296;28;20217;-66
2023/02/03 04:24:41;;;;;;;1.00;0.90;;;2.60;99.90;;;;;;4146599;28;20758;-65
2023/02/03 04:26:42;;;;;;;1.27;0.87;;;2.60;99.90;;;;;;4149138;28;20216;-64
2023/02/03 04:28:43;;;;;;;0.87;0.70;;;2.70;99.90;;;;;;4162648;28;20541;-65
2023/02/03 04:30:44;;;;;;;1.03;0.90;;;2.80;99.90;;;;;;4164487;28;20705;-64
2023/02/03 04:32:45;;;;;;;1.93;0.73;;;2.80;99.90;;;;;;4165701;28;20518;-65
2023/02/03 04:34:46;;;;;;;0.97;0.90;;;2.90;99.90;;;;;;4165927;28;20222;-66
2023/02/03 04:36:47;;;;;;;0.83;0.60;;;2.80;99.90;;;;;;4165509;28;20991;-64
2023/02/03 04:38:49;;;;;;;3.13;1.37;;;2.90;99.90;;;;;;4164784;28;20179;-65
2023/02/03 04:40:50;;;;;;;2.47;1.67;;;2.90;99.90;;;;;;4165636;28;20219;-65
2023/02/03 04:42:50;;;;;;;2.50;0.97;;;2.90;99.90;;;;;;4165415;28;20429;-66
2023/02/03 04:44:51;;;;;;;2.47;1.30;;;2.90;99.90;;;;;;4165520;28;20515;-65
2023/02/03 04:46:52;;;;;;;4.20;1.10;;;2.80;99.90;;;;;;4165007;28;20216;-65
2023/02/03 04:48:53;;;;;;;1.03;0.90;;;2.80;99.90;;;;;;4164307;28;20563;-65
2023/02/03 04:50:53;;;;;;;1.40;0.97;;;2.90;99.90;;;;;;4165141;28;20211;-64
2023/02/03 04:52:54;;;;;;;1.43;1.10;;;2.90;99.90;;;;;;4165288;28;20207;-64
2023/02/03 04:54:54;;;;;;;1.47;0.80;;;2.90;99.90;;;;;;4165214;28;20185;-66
2023/02/03 04:56:55;;;;;;;2.20;0.90;;;2.90;99.90;;;;;;4165085;28;20211;-66
2023/02/03 04:58:56;;;;;;;2.30;0.93;;;3.00;99.90;;;;;;4164944;28;20185;-66
2023/02/03 05:00:57;;;;;;;0.87;0.77;;;3.10;99.90;;;;;;4161696;28;20196;-67
2023/02/03 05:02:57;;;;;;;2.07;0.97;;;3.00;99.90;;;;;;4150087;28;20755;-64
2023/02/03 05:04:58;;;;;;;1.10;0.80;;;3.00;99.90;;;;;;4149103;28;20212;-65
2023/02/03 05:06:59;;;;;;;1.83;1.20;;;2.90;99.90;;;;;;4148715;28;20213;-65
2023/02/03 05:08:59;;;;;;;4.40;1.60;;;2.80;99.90;;;;;;4148050;28;20177;-65
2023/02/03 05:11:00;;;;;;;1.00;0.90;;;2.70;99.90;;;;;;4148426;28;20629;-67
2023/02/03 05:13:01;;;;;;;0.93;0.90;;;2.70;99.90;;;;;;4148497;28;20583;-67
2023/02/03 05:15:02;;;;;;;0.80;0.80;;;2.70;99.90;;;;;;4148742;28;20210;-66
2023/02/03 05:17:03;;;;;;;1.20;1.00;;;2.70;99.90;;;;;;4148468;28;20217;-66
2023/02/03 05:19:03;;;;;;;1.43;1.00;;;2.80;99.90;;;;;;4131753;28;20193;-67
2023/02/03 05:21:04;;;;;;;1.07;0.80;;;2.80;99.90;;;;;;4130713;28;20194;-66
2023/02/03 05:23:05;;;;;;;1.60;0.90;;;2.80;99.90;;;;;;4132146;28;20179;-67
2023/02/03 05:25:07;;;;;;;1.30;1.10;;;2.80;99.90;;;;;;4132089;28;20488;-66
2023/02/03 05:27:07;;;;;;;1.03;0.90;;;2.70;99.90;;;;;;4131953;28;20225;-67
2023/02/03 05:29:10;;;;;;;1.37;0.90;;;2.60;99.90;;;;;;4131696;28;20965;-66
2023/02/03 05:31:11;;;;;;;2.10;0.90;;;2.60;99.90;;;;;;4132077;28;20595;-66
2023/02/03 05:33:11;;;;;;;1.47;1.10;;;2.60;99.90;;;;;;4130888;28;20433;-67
2023/02/03 05:35:12;;;;;;;1.90;0.87;;;2.60;99.90;;;;;;4133091;28;20564;-67
2023/02/03 05:37:13;;;;;;;1.90;1.17;;;2.60;99.90;;;;;;4131564;28;20217;-67
2023/02/03 05:39:13;;;;;;;1.77;1.03;;;2.50;99.90;;;;;;4130832;28;20183;-67
2023/02/03 05:43:34;;;;;;;1.83;1.00;;;2.70;99.90;;;;;;4131389;28;20189;-66
2023/02/03 05:45:34;;;;;;;1.53;0.90;;;2.60;99.90;;;;;;4131324;28;20911;-66
2023/02/03 05:47:35;;;;;;;3.47;1.93;;;2.60;99.90;;;;;;4131208;28;20453;-66
2023/02/03 05:49:36;;;;;;;2.70;1.70;;;2.60;99.90;;;;;;4130578;28;20789;-67
2023/02/03 05:51:38;;;;;;;5.23;1.50;;;2.60;99.90;;;;;;4131472;28;20237;-68
2023/02/03 05:53:38;;;;;;;2.90;1.50;;;2.50;99.90;;;;;;4130034;28;20272;-66
2023/02/03 05:55:40;;;;;;;1.30;0.93;;;2.50;99.90;;;;;;4131281;28;20931;-66
2023/02/03 05:57:41;;;;;;;4.10;3.70;;;2.40;99.90;;;;;;4131179;28;20210;-67
2023/02/03 05:59:41;;;;;;;7.67;6.97;;;2.30;99.90;;;;;;4130816;28;20432;-66
2023/02/03 06:01:42;;;;;;;2.43;2.13;;;2.30;99.90;;;;;;4131178;28;20255;-67
2023/02/03 06:03:43;;;;;;;3.67;2.73;;;2.40;99.90;;;;;;4131062;28;20189;-66
2023/02/03 06:05:43;;;;;;;3.80;1.93;;;2.40;99.90;;;;;;4131011;28;20185;-67
2023/02/03 06:07:44;;;;;;;1.20;1.10;;;2.50;99.90;;;;;;4131007;28;20194;-66
2023/02/03 06:09:45;;;;;;;3.83;1.70;;;2.50;99.90;;;;;;4130274;28;20257;-67
2023/02/03 06:11:45;;;;;;;1.70;1.60;;;2.40;99.90;;;;;;4130664;28;20266;-66
2023/02/03 06:13:46;;;;;;;0.97;0.93;;;2.40;99.90;;;;;;4135660;28;20248;-67
2023/02/03 06:15:47;;;;;;;1.90;1.70;;;2.50;99.90;;;;;;4145811;28;20270;-66
2023/02/03 06:17:48;;;;;;;1.67;1.57;;;2.50;99.90;;;;;;4147047;28;20232;-65
2023/02/03 06:19:49;;;;;;;1.63;1.37;;;2.50;99.90;;;;;;4145312;28;20224;-65
2023/02/03 06:21:50;;;;;;;3.33;1.10;;;2.60;99.90;;;;;;4147035;28;20455;-66
2023/02/03 06:23:50;;;;;;;2.23;1.30;;;2.60;99.90;;;;;;4146226;28;20189;-66
2023/02/03 06:25:51;;;;;;;2.60;1.33;;;2.70;99.90;;;;;;4147241;28;20235;-66
2023/02/03 06:27:52;;;;;;;1.97;1.20;;;2.70;99.90;;;;;;4149245;28;20193;-66
2023/02/03 06:29:53;;;;;;;6.03;1.43;;;2.50;99.90;;;;;;4146252;28;20201;-67
2023/02/03 06:31:53;;;;;;;12.37;5.00;;;2.40;99.90;;;;;;4146975;28;20188;-67
2023/02/03 06:33:56;;;;;;;3.53;2.17;;;2.30;99.90;;;;;;4162028;28;20211;-65
2023/02/03 06:35:57;;;;;;;3.60;2.67;;;2.40;99.90;;;;;;4146711;28;20192;-66
2023/02/03 06:37:57;;;;;;;3.83;2.00;;;2.40;99.90;;;;;;4145479;28;20460;-67
2023/02/03 06:39:58;;;;;;;3.60;2.00;;;2.50;99.90;;;;;;4146121;28;20426;-66
2023/02/03 06:41:59;;;;;;;4.23;2.50;;;2.50;99.90;;;;;;4147053;28;20188;-65
2023/02/03 06:43:59;;;;;;;2.23;2.00;;;2.50;99.90;;;;;;4146910;28;20185;-66
2023/02/03 06:46:00;;;;;;;1.70;1.33;;;2.40;99.90;;;;;;4146569;28;20656;-66
2023/02/03 06:48:01;;;;;;;1.57;1.37;;;2.40;99.90;;;;;;4146810;28;20291;-66
2023/02/03 06:50:02;;;;;;;2.63;2.40;;;2.50;99.90;;;;;;4146026;28;20227;-66
2023/02/03 06:52:02;;;;;;;2.57;1.73;;;2.50;99.90;;;;;;4161597;28;20667;-66
2023/02/03 06:54:03;;;;;;;3.50;2.40;;;2.50;99.90;;;;;;4146763;28;20680;-66
2023/02/03 06:56:05;;;;;;;3.20;2.30;;;2.50;99.90;;;;;;4145181;28;20220;-66
2023/02/03 06:58:05;;;;;;;2.13;1.60;;;2.50;99.90;;;;;;4146474;28;20468;-66
2023/02/03 07:00:07;;;;;;;2.20;2.00;;;2.30;99.90;;;;;;4160906;28;20431;-66
2023/02/03 07:02:10;;;;;;;2.83;1.90;;;2.40;99.90;;;;;;4150919;28;20217;-67
2023/02/03 07:04:11;;;;;;;1.90;1.70;;;2.30;99.90;;;;;;4154018;28;20910;-66
2023/02/03 07:06:13;;;;;;;2.50;1.80;;;2.40;99.90;;;;;;4146741;28;20443;-67
2023/02/03 07:08:13;;;;;;;4.23;2.10;;;2.30;99.90;;;;;;4146871;28;20200;-66
2023/02/03 07:10:14;;;;;;;2.07;1.70;;;2.20;99.90;;;;;;4146328;28;20822;-67
2023/02/03 07:12:15;;;;;;;2.77;2.03;;;2.20;99.90;;;;;;4146681;28;20193;-65
2023/02/03 07:14:16;;;;;;;3.80;2.00;;;2.20;99.90;;;;;;4146831;28;20435;-73
2023/02/03 07:16:17;;;;;;;3.20;2.03;;;2.20;99.90;;;;;;4145288;28;20253;-66
2023/02/03 07:18:20;;;;;;;2.47;1.70;;;2.30;99.90;;;;;;4136754;28;20710;-65
2023/02/03 07:20:22;;;;;;;4.10;2.10;;;2.30;99.90;;;;;;4130404;28;20193;-66
2023/02/03 07:22:23;;;;;;;3.27;1.80;;;2.20;99.90;;;;;;4129215;28;20432;-66
2023/02/03 07:24:24;;;;;;;3.33;2.10;;;2.20;99.90;;;;;;4130182;28;20444;-65
2023/02/03 07:26:25;;;;;;;1.77;1.50;;;2.20;99.90;;;;;;4130491;28;20218;-66
2023/02/03 07:28:26;;;;;;;3.87;2.20;;;2.20;99.90;;;;;;4129663;28;20520;-66
2023/02/03 07:30:26;;;;;;;1.87;1.60;;;2.20;99.90;;;;;;4130777;28;20428;-66
2023/02/03 07:32:27;;;;;;;7.80;1.63;;;2.20;99.90;;;;;;4129168;28;20189;-66
2023/02/03 07:34:28;;;;;;;2.13;1.60;;;2.30;99.90;;;;;;4130322;28;20200;-66
2023/02/03 07:36:29;;;;;;;2.27;1.37;;;2.40;99.90;;;;;;4129774;28;20308;-65
2023/02/03 07:38:30;;;;;;;1.93;1.40;;;2.50;99.90;;;;;;4127432;28;20422;-66
2023/02/03 07:40:31;;;;;;;1.57;1.40;;;2.50;99.90;;;;;;4129910;28;20500;-66
2023/02/03 07:42:32;;;;;;;3.20;1.50;;;2.50;99.90;;;;;;4130052;28;20453;-64
2023/02/03 07:44:32;;;;;;;1.50;1.40;;;2.60;99.90;;;;;;4130155;28;20177;-67
2023/02/03 07:46:33;;;;;;;1.27;1.17;;;2.60;99.90;;;;;;4129850;28;20245;-66
2023/02/03 07:48:34;;;;;;;1.77;1.30;;;2.70;99.90;;;;;;4128985;28;20277;-65
2023/02/03 07:50:35;;;;;;;2.30;1.63;;;2.80;99.90;;;;;;4129775;28;20178;-67
2023/02/03 07:52:36;;;;;;;1.30;1.20;;;2.80;99.90;;;;;;4129792;28;20683;-66
2023/02/03 07:54:37;;;;;;;1.80;1.50;;;2.90;99.90;;;;;;4129749;28;20186;-67
2023/02/03 07:56:37;;;;;;;2.03;1.63;;;2.80;99.90;;;;;;4129515;28;20556;-67
2023/02/03 07:58:38;;;;;;;4.20;1.50;;;2.90;99.90;;;;;;4127756;28;20237;-66
2023/02/03 08:00:39;;;;;;;2.60;2.00;;;2.80;99.90;;;;;;4129583;28;20212;-66
2023/02/03 08:02:41;;;;;;;2.50;1.70;;;2.90;99.90;;;;;;4128406;28;20178;-66
2023/02/03 08:04:42;;;;;;;2.07;1.93;;;2.90;99.90;;;;;;4129708;28;20186;-64
2023/02/03 08:06:43;;;;;;;1.50;1.40;;;2.80;99.90;;;;;;4129722;28;20446;-66
2023/02/03 08:08:43;;;;;;;3.70;1.50;;;2.90;99.90;;;;;;4129138;28;20179;-66
2023/02/03 08:10:44;;;;;;;2.10;1.53;;;2.90;99.90;;;;;;4129385;28;20655;-66
2023/02/03 08:12:45;;;;;;;2.13;1.93;;;3.10;99.90;;;;;;4129666;28;20189;-66
2023/02/03 08:14:47;;;;;;;2.10;1.87;;;3.10;99.90;;;;;;4128345;28;20190;-63
2023/02/03 08:16:47;;;;;;;1.97;1.50;;;3.10;99.90;;;;;;4129646;28;20563;-65
2023/02/03 08:18:48;;;;;;;3.57;2.17;;;3.00;99.90;;;;;;4142659;28;20509;-63
2023/02/03 08:20:49;;;;;;;2.10;1.40;;;3.00;99.90;;;;;;4145610;28;20185;-64
2023/02/03 08:22:50;;;;;;;2.40;1.50;;;2.90;99.90;;;;;;4145573;28;20526;-64
2023/02/03 08:24:50;;;;;;;1.60;1.40;;;3.10;99.90;;;;;;4147010;28;20616;-64
2023/02/03 08:26:51;;;;;;;1.47;1.20;;;3.10;99.90;;;;;;4145488;28;20209;-64
2023/02/03 08:28:52;;;;;;;2.97;1.30;;;3.10;99.90;;;;;;4143912;28;20180;-65
2023/02/03 08:30:53;;;;;;;2.63;1.30;;;3.20;99.90;;;;;;4143647;28;20482;-62
2023/02/03 08:32:54;;;;;;;3.13;1.30;;;3.20;99.90;;;;;;4145498;28;20317;-61
2023/02/03 08:34:55;;;;;;;2.73;2.07;;;3.10;99.90;;;;;;4143364;28;20185;-62
2023/02/03 08:36:55;;;;;;;1.93;1.60;;;3.00;99.90;;;;;;4133488;28;20213;-64
2023/02/03 08:38:56;;;;;;;3.90;1.80;;;3.00;99.90;;;;;;4144779;28;20655;-64
2023/02/03 08:40:56;;;;;;;2.10;1.50;;;3.10;99.90;;;;;;4136889;28;20559;-64
2023/02/03 08:42:57;;;;;;;5.17;2.30;;;3.30;99.90;;;;;;4143690;28;20236;-63
2023/02/03 08:44:58;;;;;;;3.07;1.60;;;3.40;99.90;;;;;;4128919;28;20601;-64
2023/02/03 08:47:00;;;;;;;2.00;1.60;;;3.40;99.90;;;;;;4129690;28;20202;-63
2023/02/03 08:49:02;;;;;;;2.60;1.53;;;3.30;99.90;;;;;;4145050;28;20204;-64
2023/02/03 08:51:14;;;;;;;4.37;1.57;;;3.30;99.90;;;;;;4133230;28;20559;-64
2023/02/03 08:53:14;;;;;;;2.87;1.40;;;3.30;99.90;;;;;;4145373;28;20796;-65
2023/02/03 08:55:15;;;;;;;2.37;1.43;;;3.40;99.90;;;;;;4131967;28;20442;-64
2023/02/03 08:57:16;;;;;;;2.03;1.40;;;3.50;99.90;;;;;;4134794;28;20275;-67
2023/02/03 08:59:17;;;;;;;2.67;1.23;;;3.50;99.90;;;;;;4144255;28;20724;-64
2023/02/03 09:01:18;;;;;;;3.73;1.27;;;3.50;99.90;;;;;;4135130;28;20174;-65
2023/02/03 09:03:18;;;;;;;1.60;1.10;;;3.60;99.90;;;;;;4148799;28;20437;-64
2023/02/03 09:05:19;;;;;;;1.83;1.40;;;3.60;99.90;;;;;;4140228;28;20178;-65
2023/02/03 09:07:20;;;;;;;1.90;1.40;;;3.60;99.90;;;;;;4145323;28;20317;-66
2023/02/03 09:09:22;;;;;;;1.60;1.50;;;3.50;99.90;;;;;;4135266;28;20192;-65
2023/02/03 09:11:23;;;;;;;2.20;1.70;;;3.60;99.90;;;;;;4146758;28;20492;-66
2023/02/03 09:13:24;;;;;;;1.60;1.50;;;3.70;99.90;;;;;;4147387;28;20834;-66
2023/02/03 09:15:25;;;;;;;3.10;2.90;;;3.80;99.90;;;;;;4142850;28;20190;-65
2023/02/03 09:17:26;;;;;;;1.30;1.07;;;3.70;99.90;;;;;;4133570;28;20703;-65
2023/02/03 09:19:28;;;;;;;1.10;1.00;;;3.70;99.90;;;;;;4135676;28;20432;-66
2023/02/03 09:21:28;;;;;;;1.27;0.87;;;3.80;99.90;;;;;;4143221;28;20434;-65
2023/02/03 09:23:29;;;;;;;2.33;1.53;;;3.90;99.90;;;;;;4135381;28;20781;-65
2023/02/03 09:25:30;;;;;;;1.00;0.90;;;3.90;99.90;;;;;;4141972;28;20185;-66
2023/02/03 09:27:30;;;;;;;1.03;0.87;;;3.80;99.90;;;;;;4136469;28;20210;-66
2023/02/03 09:29:31;;;;;;;3.17;1.27;;;3.80;99.90;;;;;;4156977;28;20185;-65
2023/02/03 09:31:32;;;;;;;1.10;1.00;;;3.80;99.90;;;;;;4137479;28;20276;-65
2023/02/03 09:33:33;;;;;;;2.03;1.30;;;3.80;99.90;;;;;;4143192;28;20194;-66
2023/02/03 09:35:33;;;;;;;1.37;0.90;;;3.70;99.90;;;;;;4137394;28;20196;-66
2023/02/03 09:37:34;;;;;;;1.30;1.00;;;3.80;99.90;;;;;;4142085;28;20771;-66
2023/02/03 09:39:35;;;;;;;1.90;1.57;;;3.80;99.90;;;;;;4151423;28;20591;-64
2023/02/03 09:42:27;;;;;;;1.30;1.20;;;3.90;99.90;;;;;;4142179;28;20191;-66
2023/02/03 09:44:40;;;;;;;1.23;1.07;;;3.80;99.90;;;;;;4125779;28;20209;-68
2023/02/03 09:46:48;;;;;;;4.00;3.43;;;3.90;99.90;;;;;;4129167;28;20449;-66
2023/02/03 09:49:12;;;;;;;3.20;2.47;;;4.00;99.90;;;;;;4130124;28;20436;-66
2023/02/03 09:51:48;;;;;;;2.67;1.40;;;4.10;99.90;;;;;;4133765;28;20422;-66
2023/02/03 09:53:56;;;;;;;3.33;1.43;;;4.30;99.90;;;;;;4147284;28;20426;-64
2023/02/03 09:55:58;;;;;;;1.17;1.07;;;4.50;99.90;;;;;;4138607;28;21012;-66
2023/02/03 09:58:11;;;;;;;1.60;1.50;;;4.60;99.90;;;;;;4139729;28;20799;-66
2023/02/03 10:00:43;;;;;;;1.73;1.10;;;4.60;99.90;;;;;;4144659;28;20264;-66
2023/02/03 10:02:57;;;;;;;0.90;0.90;;;4.50;99.90;;;;;;4130001;28;20426;-65
2023/02/03 10:05:32;;;;;;;1.37;1.27;;;4.50;99.90;;;;;;4131002;28;20425;-66
2023/02/03 10:07:40;;;;;;;1.77;0.90;;;4.60;99.90;;;;;;4134568;28;20456;-65
2023/02/03 10:10:02;;;;;;;1.20;1.00;;;5.20;99.90;;;;;;4135159;28;20223;-65
2023/02/03 10:12:28;;;;;;;1.53;1.43;;;5.50;99.90;;;;;;4137634;28;20249;-66
2023/02/03 10:15:43;;;;;;;1.47;1.37;;;5.80;99.90;;;;;;4142475;28;20181;-65
2023/02/03 10:17:59;;;;;;;1.60;0.90;;;5.90;99.90;;;;;;4126873;28;20293;-66
2023/02/03 10:20:08;;;;;;;1.00;0.90;;;6.00;99.90;;;;;;4166038;28;20203;-67
2023/02/03 10:22:16;;;;;;;1.07;1.07;;;6.40;99.90;;;;;;4152800;28;20173;-66
2023/02/03 10:24:34;;;;;;;1.70;1.60;;;5.80;99.90;;;;;;4129188;28;20727;-66
2023/02/03 10:26:38;;;;;;;1.03;1.00;;;5.10;99.90;;;;;;4145514;28;20208;-66
2023/02/03 10:28:50;;;;;;;0.70;0.70;;;4.60;99.90;;;;;;4131900;28;20620;-65
2023/02/03 10:30:57;;;;;;;0.90;0.90;;;4.50;99.90;;;;;;4145125;28;20277;-66
2023/02/03 10:33:11;;;;;;;1.43;0.90;;;4.40;99.90;;;;;;4135515;28;21091;-65
2023/02/03 10:35:13;;;;;;;1.10;1.10;;;4.50;99.90;;;;;;4145352;28;20170;-66
2023/02/03 10:37:32;;;;;;;0.70;0.67;;;4.40;99.90;;;;;;4131603;28;20559;-66
2023/02/03 10:39:50;;;;;;;1.60;1.50;;;4.20;99.90;;;;;;4145011;28;20865;-66
2023/02/03 10:41:52;;;;;;;1.40;1.30;;;4.20;99.90;;;;;;4138837;28;20438;-67
2023/02/03 10:43:53;;;;;;;1.03;0.70;;;4.10;99.90;;;;;;4145540;28;20802;-65
2023/02/03 10:45:54;;;;;;;0.77;0.77;;;4.00;99.90;;;;;;4145329;28;20431;-65
2023/02/03 10:47:55;;;;;;;1.07;0.80;;;3.90;99.90;;;;;;4138259;28;20217;-67
2023/02/03 10:49:57;;;;;;;2.00;1.53;;;3.90;99.90;;;;;;4120476;28;20220;-66
2023/02/03 10:52:03;;;;;;;0.70;0.70;;;3.90;99.90;;;;;;4145241;28;20433;-66
2023/02/03 10:54:04;;;;;;;0.90;0.70;;;4.30;99.90;;;;;;4135391;28;20472;-67
2023/02/03 10:56:14;;;;;;;1.10;1.00;;;4.80;99.90;;;;;;4138301;28;20185;-67
2023/02/03 10:58:28;;;;;;;0.97;0.80;;;4.90;99.90;;;;;;4135177;28;20203;-68
2023/02/03 11:00:30;;;;;;;0.97;0.87;;;5.20;99.90;;;;;;4139961;28;20428;-66
2023/02/03 11:02:31;;;;;;;0.97;0.80;;;5.30;99.90;;;;;;4133157;28;20174;-68